sensor_id;sensor_type;location;lat;lon;timestamp;temperature;humidity
46309;DHT22;32037;50.820;6.494;2022-11-20T00:01:14;10.20;80.50
46309;DHT22;32037;50.820;6.494;2022-11-20T00:04:10;10.20;80.50
46309;DHT22;32037;50.820;6.494;2022-11-20T00:06:39;10.20;80.50
46309;DHT22;32037;50.820;6.494;2022-11-20T00:09:19;10.20;80.50
46309;DHT22;32037;50.820;6.494;2022-11-20T00:11:50;10.20;80.50
46309;DHT22;32037;50.820;6.494;2022-11-20T00:14:19;10.20;80.50
46309;DHT22;32037;50.820;6.494;2022-11-20T00:16:48;10.20;80.50
46309;DHT22;32037;50.820;6.494;2022-11-20T00:19:22;10.20;80.50
46309;DHT22;32037;50.820;6.494;2022-11-20T00:21:52;10.10;80.40
46309;DHT22;32037;50.820;6.494;2022-11-20T00:24:25;10.20;80.50
46309;DHT22;32037;50.820;6.494;2022-11-20T00:26:55;10.20;80.50
46309;DHT22;32037;50.820;6.494;2022-11-20T00:29:27;10.10;80.40
46309;DHT22;32037;50.820;6.494;2022-11-20T00:31:56;10.10;80.40
46309;DHT22;32037;50.820;6.494;2022-11-20T00:34:29;10.20;80.50
46309;DHT22;32037;50.820;6.494;2022-11-20T00:37:07;10.10;80.40
46309;DHT22;32037;50.820;6.494;2022-11-20T00:39:43;10.10;80.40
46309;DHT22;32037;50.820;6.494;2022-11-20T00:42:13;10.10;80.50
46309;DHT22;32037;50.820;6.494;2022-11-20T00:44:55;10.10;80.50
46309;DHT22;32037;50.820;6.494;2022-11-20T00:47:35;10.10;80.40
46309;DHT22;32037;50.820;6.494;2022-11-20T00:50:05;10.10;80.50
46309;DHT22;32037;50.820;6.494;2022-11-20T00:52:43;10.20;80.50
46309;DHT22;32037;50.820;6.494;2022-11-20T00:55:14;10.10;80.50
46309;DHT22;32037;50.820;6.494;2022-11-20T00:57:51;10.10;80.50
46309;DHT22;32037;50.820;6.494;2022-11-20T01:00:30;10.10;80.50
46309;DHT22;32037;50.820;6.494;2022-11-20T01:03:00;10.10;80.50
46309;DHT22;32037;50.820;6.494;2022-11-20T01:05:34;10.10;80.50
46309;DHT22;32037;50.820;6.494;2022-11-20T01:08:03;10.10;80.50
46309;DHT22;32037;50.820;6.494;2022-11-20T01:10:36;10.10;80.50
46309;DHT22;32037;50.820;6.494;2022-11-20T01:13:07;10.10;80.50
46309;DHT22;32037;50.820;6.494;2022-11-20T01:16:15;10.10;80.50
46309;DHT22;32037;50.820;6.494;2022-11-20T01:18:46;10.10;80.50
46309;DHT22;32037;50.820;6.494;2022-11-20T01:21:19;10.10;80.50
46309;DHT22;32037;50.820;6.494;2022-11-20T01:24:01;10.10;80.50
46309;DHT22;32037;50.820;6.494;2022-11-20T01:26:34;10.10;80.50
46309;DHT22;32037;50.820;6.494;2022-11-20T01:29:05;10.10;80.50
46309;DHT22;32037;50.820;6.494;2022-11-20T01:31:36;10.10;80.50
46309;DHT22;32037;50.820;6.494;2022-11-20T01:34:15;10.10;80.50
46309;DHT22;32037;50.820;6.494;2022-11-20T01:36:55;10.10;80.60
46309;DHT22;32037;50.820;6.494;2022-11-20T01:39:28;10.00;80.50
46309;DHT22;32037;50.820;6.494;2022-11-20T01:41:59;10.10;80.60
46309;DHT22;32037;50.820;6.494;2022-11-20T01:44:53;10.10;80.60
46309;DHT22;32037;50.820;6.494;2022-11-20T01:47:30;10.00;80.50
46309;DHT22;32037;50.820;6.494;2022-11-20T01:50:09;10.10;80.60
46309;DHT22;32037;50.820;6.494;2022-11-20T01:52:44;10.10;80.50
46309;DHT22;32037;50.820;6.494;2022-11-20T01:55:20;10.10;80.50
46309;DHT22;32037;50.820;6.494;2022-11-20T01:57:52;10.10;80.60
46309;DHT22;32037;50.820;6.494;2022-11-20T02:00:22;10.10;80.60
46309;DHT22;32037;50.820;6.494;2022-11-20T02:02:57;10.10;80.60
46309;DHT22;32037;50.820;6.494;2022-11-20T02:05:51;10.10;80.90
46309;DHT22;32037;50.820;6.494;2022-11-20T02:08:25;10.00;80.50
46309;DHT22;32037;50.820;6.494;2022-11-20T02:10:55;10.00;80.50
46309;DHT22;32037;50.820;6.494;2022-11-20T02:13:25;10.00;80.50
46309;DHT22;32037;50.820;6.494;2022-11-20T02:16:20;10.00;80.50
46309;DHT22;32037;50.820;6.494;2022-11-20T02:18:51;10.00;80.50
46309;DHT22;32037;50.820;6.494;2022-11-20T02:21:30;10.00;80.50
46309;DHT22;32037;50.820;6.494;2022-11-20T02:24:08;10.00;80.50
46309;DHT22;32037;50.820;6.494;2022-11-20T02:26:43;10.00;80.50
46309;DHT22;32037;50.820;6.494;2022-11-20T02:29:17;10.00;80.50
46309;DHT22;32037;50.820;6.494;2022-11-20T02:32:19;10.00;80.60
46309;DHT22;32037;50.820;6.494;2022-11-20T02:34:53;10.00;80.60
46309;DHT22;32037;50.820;6.494;2022-11-20T02:37:30;10.00;80.50
46309;DHT22;32037;50.820;6.494;2022-11-20T02:41:03;10.00;80.50
46309;DHT22;32037;50.820;6.494;2022-11-20T02:43:51;10.00;80.50
46309;DHT22;32037;50.820;6.494;2022-11-20T02:46:43;10.00;80.50
46309;DHT22;32037;50.820;6.494;2022-11-20T02:49:17;10.00;80.60
46309;DHT22;32037;50.820;6.494;2022-11-20T02:51:47;10.00;80.50
46309;DHT22;32037;50.820;6.494;2022-11-20T02:54:18;10.00;80.60
46309;DHT22;32037;50.820;6.494;2022-11-20T02:57:27;10.00;80.50
46309;DHT22;32037;50.820;6.494;2022-11-20T02:59:58;9.90;81.50
46309;DHT22;32037;50.820;6.494;2022-11-20T03:02:29;10.00;80.50
46309;DHT22;32037;50.820;6.494;2022-11-20T03:05:01;10.00;80.50
46309;DHT22;32037;50.820;6.494;2022-11-20T03:07:31;9.90;81.50
46309;DHT22;32037;50.820;6.494;2022-11-20T03:10:00;9.90;81.50
46309;DHT22;32037;50.820;6.494;2022-11-20T03:12:31;9.90;81.50
46309;DHT22;32037;50.820;6.494;2022-11-20T03:15:10;9.90;81.50
46309;DHT22;32037;50.820;6.494;2022-11-20T03:17:42;9.90;81.50
46309;DHT22;32037;50.820;6.494;2022-11-20T03:20:14;9.90;81.50
46309;DHT22;32037;50.820;6.494;2022-11-20T03:22:44;9.90;81.50
46309;DHT22;32037;50.820;6.494;2022-11-20T03:25:20;9.90;81.60
46309;DHT22;32037;50.820;6.494;2022-11-20T03:27:56;9.90;81.60
46309;DHT22;32037;50.820;6.494;2022-11-20T03:30:26;9.90;81.60
46309;DHT22;32037;50.820;6.494;2022-11-20T03:32:58;9.90;81.50
46309;DHT22;32037;50.820;6.494;2022-11-20T03:35:27;9.90;81.50
46309;DHT22;32037;50.820;6.494;2022-11-20T03:37:58;9.90;81.60
46309;DHT22;32037;50.820;6.494;2022-11-20T03:40:57;9.90;81.60
46309;DHT22;32037;50.820;6.494;2022-11-20T03:43:34;9.90;81.60
46309;DHT22;32037;50.820;6.494;2022-11-20T03:46:05;9.90;81.50
46309;DHT22;32037;50.820;6.494;2022-11-20T03:48:53;9.90;81.50
46309;DHT22;32037;50.820;6.494;2022-11-20T03:54:16;9.90;81.50
46309;DHT22;32037;50.820;6.494;2022-11-20T03:56:46;9.90;82.80
46309;DHT22;32037;50.820;6.494;2022-11-20T03:59:22;9.90;81.50
46309;DHT22;32037;50.820;6.494;2022-11-20T04:02:09;9.90;81.50
46309;DHT22;32037;50.820;6.494;2022-11-20T04:04:44;9.90;81.50
46309;DHT22;32037;50.820;6.494;2022-11-20T04:07:17;9.90;81.60
46309;DHT22;32037;50.820;6.494;2022-11-20T04:09:46;9.90;81.60
46309;DHT22;32037;50.820;6.494;2022-11-20T04:12:19;9.90;81.70
46309;DHT22;32037;50.820;6.494;2022-11-20T04:14:50;9.90;81.60
46309;DHT22;32037;50.820;6.494;2022-11-20T04:17:19;9.80;81.60
46309;DHT22;32037;50.820;6.494;2022-11-20T04:19:51;9.80;81.50
46309;DHT22;32037;50.820;6.494;2022-11-20T04:22:23;9.90;81.50
46309;DHT22;32037;50.820;6.494;2022-11-20T04:24:53;9.90;81.60
46309;DHT22;32037;50.820;6.494;2022-11-20T04:27:30;9.90;81.60
46309;DHT22;32037;50.820;6.494;2022-11-20T04:30:07;9.80;81.50
46309;DHT22;32037;50.820;6.494;2022-11-20T04:32:38;9.80;81.50
46309;DHT22;32037;50.820;6.494;2022-11-20T04:35:16;9.80;81.70
46309;DHT22;32037;50.820;6.494;2022-11-20T04:37:48;9.90;81.60
46309;DHT22;32037;50.820;6.494;2022-11-20T04:40:19;9.90;81.50
46309;DHT22;32037;50.820;6.494;2022-11-20T04:42:49;9.80;81.50
46309;DHT22;32037;50.820;6.494;2022-11-20T04:45:19;9.80;81.50
46309;DHT22;32037;50.820;6.494;2022-11-20T04:47:52;9.80;81.50
46309;DHT22;32037;50.820;6.494;2022-11-20T04:50:24;9.80;81.50
46309;DHT22;32037;50.820;6.494;2022-11-20T04:52:56;9.80;81.50
46309;DHT22;32037;50.820;6.494;2022-11-20T04:55:26;9.80;81.50
46309;DHT22;32037;50.820;6.494;2022-11-20T04:57:56;9.80;81.50
46309;DHT22;32037;50.820;6.494;2022-11-20T05:00:29;9.80;81.60
46309;DHT22;32037;50.820;6.494;2022-11-20T05:02:58;9.80;81.60
46309;DHT22;32037;50.820;6.494;2022-11-20T05:05:28;9.80;81.60
46309;DHT22;32037;50.820;6.494;2022-11-20T05:08:28;9.80;81.60
46309;DHT22;32037;50.820;6.494;2022-11-20T05:11:11;9.80;81.50
46309;DHT22;32037;50.820;6.494;2022-11-20T05:14:16;9.80;81.60
46309;DHT22;32037;50.820;6.494;2022-11-20T05:16:50;9.80;81.60
46309;DHT22;32037;50.820;6.494;2022-11-20T05:19:20;9.80;82.80
46309;DHT22;32037;50.820;6.494;2022-11-20T05:21:51;9.80;81.60
46309;DHT22;32037;50.820;6.494;2022-11-20T05:24:20;9.80;81.60
46309;DHT22;32037;50.820;6.494;2022-11-20T05:26:54;9.80;81.70
46309;DHT22;32037;50.820;6.494;2022-11-20T05:29:24;9.80;81.60
46309;DHT22;32037;50.820;6.494;2022-11-20T05:31:57;9.80;81.60
46309;DHT22;32037;50.820;6.494;2022-11-20T05:34:31;9.80;81.60
46309;DHT22;32037;50.820;6.494;2022-11-20T05:46:51;9.80;81.60
46309;DHT22;32037;50.820;6.494;2022-11-20T06:25:37;9.70;81.70
46309;DHT22;32037;50.820;6.494;2022-11-20T06:28:06;9.70;81.70
46309;DHT22;32037;50.820;6.494;2022-11-20T06:30:34;9.70;83.00
46309;DHT22;32037;50.820;6.494;2022-11-20T06:33:03;9.70;81.60
46309;DHT22;32037;50.820;6.494;2022-11-20T06:35:32;9.70;81.70
46309;DHT22;32037;50.820;6.494;2022-11-20T06:38:00;9.70;81.70
46309;DHT22;32037;50.820;6.494;2022-11-20T06:40:32;9.70;81.70
46309;DHT22;32037;50.820;6.494;2022-11-20T06:43:01;9.70;81.70
46309;DHT22;32037;50.820;6.494;2022-11-20T06:45:30;9.70;81.70
46309;DHT22;32037;50.820;6.494;2022-11-20T06:47:58;9.70;81.70
46309;DHT22;32037;50.820;6.494;2022-11-20T06:50:27;9.60;81.60
46309;DHT22;32037;50.820;6.494;2022-11-20T06:52:55;9.70;81.70
46309;DHT22;32037;50.820;6.494;2022-11-20T06:55:24;9.70;81.70
46309;DHT22;32037;50.820;6.494;2022-11-20T06:57:53;9.70;83.00
46309;DHT22;32037;50.820;6.494;2022-11-20T07:00:23;9.70;81.80
46309;DHT22;32037;50.820;6.494;2022-11-20T07:02:52;9.70;81.70
46309;DHT22;32037;50.820;6.494;2022-11-20T07:05:20;9.60;81.60
46309;DHT22;32037;50.820;6.494;2022-11-20T07:07:49;9.60;81.70
46309;DHT22;32037;50.820;6.494;2022-11-20T07:10:17;9.60;81.70
46309;DHT22;32037;50.820;6.494;2022-11-20T07:12:49;9.60;81.70
46309;DHT22;32037;50.820;6.494;2022-11-20T07:15:19;9.60;81.60
46309;DHT22;32037;50.820;6.494;2022-11-20T07:17:49;9.60;81.70
46309;DHT22;32037;50.820;6.494;2022-11-20T07:20:17;9.60;81.70
46309;DHT22;32037;50.820;6.494;2022-11-20T07:22:46;9.60;81.70
46309;DHT22;32037;50.820;6.494;2022-11-20T07:25:14;9.60;81.70
46309;DHT22;32037;50.820;6.494;2022-11-20T07:27:43;9.60;81.70
46309;DHT22;32037;50.820;6.494;2022-11-20T07:30:13;9.60;81.70
46309;DHT22;32037;50.820;6.494;2022-11-20T07:32:42;9.60;81.70
46309;DHT22;32037;50.820;6.494;2022-11-20T07:35:12;9.60;81.70
46309;DHT22;32037;50.820;6.494;2022-11-20T07:37:40;9.60;81.80
46309;DHT22;32037;50.820;6.494;2022-11-20T07:40:10;9.60;81.70
46309;DHT22;32037;50.820;6.494;2022-11-20T07:42:38;9.60;81.80
46309;DHT22;32037;50.820;6.494;2022-11-20T07:45:07;9.60;81.70
46309;DHT22;32037;50.820;6.494;2022-11-20T07:47:36;9.60;81.80
46309;DHT22;32037;50.820;6.494;2022-11-20T07:50:05;9.60;81.70
46309;DHT22;32037;50.820;6.494;2022-11-20T07:52:35;9.60;81.70
46309;DHT22;32037;50.820;6.494;2022-11-20T07:55:05;9.60;81.70
46309;DHT22;32037;50.820;6.494;2022-11-20T07:57:33;9.60;81.70
46309;DHT22;32037;50.820;6.494;2022-11-20T08:00:03;9.60;81.80
46309;DHT22;32037;50.820;6.494;2022-11-20T08:02:38;9.60;81.80
46309;DHT22;32037;50.820;6.494;2022-11-20T08:05:08;9.60;81.80
46309;DHT22;32037;50.820;6.494;2022-11-20T08:07:39;9.60;81.80
46309;DHT22;32037;50.820;6.494;2022-11-20T08:10:09;9.50;81.70
46309;DHT22;32037;50.820;6.494;2022-11-20T08:12:44;9.50;81.80
46309;DHT22;32037;50.820;6.494;2022-11-20T08:15:29;9.60;82.00
46309;DHT22;32037;50.820;6.494;2022-11-20T08:18:02;9.50;81.70
46309;DHT22;32037;50.820;6.494;2022-11-20T08:20:51;9.50;81.70
46309;DHT22;32037;50.820;6.494;2022-11-20T08:23:22;9.50;81.90
46309;DHT22;32037;50.820;6.494;2022-11-20T08:25:51;9.60;82.00
46309;DHT22;32037;50.820;6.494;2022-11-20T08:28:20;9.60;82.40
46309;DHT22;32037;50.820;6.494;2022-11-20T08:30:49;9.60;82.30
46309;DHT22;32037;50.820;6.494;2022-11-20T08:33:18;9.60;82.20
46309;DHT22;32037;50.820;6.494;2022-11-20T08:35:46;9.60;82.10
46309;DHT22;32037;50.820;6.494;2022-11-20T08:38:15;9.60;82.40
46309;DHT22;32037;50.820;6.494;2022-11-20T08:40:45;9.50;81.10
46309;DHT22;32037;50.820;6.494;2022-11-20T08:43:33;9.50;81.40
46309;DHT22;32037;50.820;6.494;2022-11-20T08:46:02;9.50;81.50
46309;DHT22;32037;50.820;6.494;2022-11-20T08:48:30;9.50;81.60
46309;DHT22;32037;50.820;6.494;2022-11-20T08:50:59;9.50;81.70
46309;DHT22;32037;50.820;6.494;2022-11-20T08:53:27;9.50;81.60
46309;DHT22;32037;50.820;6.494;2022-11-20T08:55:58;9.50;81.50
46309;DHT22;32037;50.820;6.494;2022-11-20T08:58:26;9.50;81.60
46309;DHT22;32037;50.820;6.494;2022-11-20T09:00:57;9.50;81.70
46309;DHT22;32037;50.820;6.494;2022-11-20T09:03:25;9.50;81.70
46309;DHT22;32037;50.820;6.494;2022-11-20T09:05:59;9.50;81.60
46309;DHT22;32037;50.820;6.494;2022-11-20T09:08:28;9.50;81.60
46309;DHT22;32037;50.820;6.494;2022-11-20T09:10:59;9.50;81.60
46309;DHT22;32037;50.820;6.494;2022-11-20T09:13:28;9.50;81.60
46309;DHT22;32037;50.820;6.494;2022-11-20T09:15:58;9.50;81.60
46309;DHT22;32037;50.820;6.494;2022-11-20T09:18:28;9.50;81.70
46309;DHT22;32037;50.820;6.494;2022-11-20T09:21:02;9.50;81.70
46309;DHT22;32037;50.820;6.494;2022-11-20T09:23:33;9.50;81.60
46309;DHT22;32037;50.820;6.494;2022-11-20T09:26:05;9.50;81.70
46309;DHT22;32037;50.820;6.494;2022-11-20T09:28:33;9.50;81.70
46309;DHT22;32037;50.820;6.494;2022-11-20T09:31:05;9.50;81.60
46309;DHT22;32037;50.820;6.494;2022-11-20T09:33:34;9.50;81.70
46309;DHT22;32037;50.820;6.494;2022-11-20T09:36:03;9.50;81.70
46309;DHT22;32037;50.820;6.494;2022-11-20T09:38:32;9.50;81.60
46309;DHT22;32037;50.820;6.494;2022-11-20T09:41:06;9.50;81.80
46309;DHT22;32037;50.820;6.494;2022-11-20T09:43:46;9.40;81.60
46309;DHT22;32037;50.820;6.494;2022-11-20T09:46:20;9.40;81.60
46309;DHT22;32037;50.820;6.494;2022-11-20T09:49:09;9.50;81.70
46309;DHT22;32037;50.820;6.494;2022-11-20T09:51:49;9.50;81.80
46309;DHT22;32037;50.820;6.494;2022-11-20T09:54:22;9.40;81.70
46309;DHT22;32037;50.820;6.494;2022-11-20T09:57:00;9.40;81.60
46309;DHT22;32037;50.820;6.494;2022-11-20T09:59:35;9.40;81.60
46309;DHT22;32037;50.820;6.494;2022-11-20T10:02:15;9.40;81.80
46309;DHT22;32037;50.820;6.494;2022-11-20T10:04:47;9.40;81.80
46309;DHT22;32037;50.820;6.494;2022-11-20T10:07:20;9.40;81.80
46309;DHT22;32037;50.820;6.494;2022-11-20T10:09:59;9.40;81.90
46309;DHT22;32037;50.820;6.494;2022-11-20T10:12:36;9.40;81.70
46309;DHT22;32037;50.820;6.494;2022-11-20T10:15:16;9.40;81.70
46309;DHT22;32037;50.820;6.494;2022-11-20T10:18:01;9.40;81.70
46309;DHT22;32037;50.820;6.494;2022-11-20T10:20:39;9.40;81.80
46309;DHT22;32037;50.820;6.494;2022-11-20T10:23:27;9.40;81.80
46309;DHT22;32037;50.820;6.494;2022-11-20T10:26:02;9.40;81.90
46309;DHT22;32037;50.820;6.494;2022-11-20T10:28:48;9.40;81.90
46309;DHT22;32037;50.820;6.494;2022-11-20T10:31:30;9.40;82.00
46309;DHT22;32037;50.820;6.494;2022-11-20T10:34:03;9.40;81.90
46309;DHT22;32037;50.820;6.494;2022-11-20T10:36:42;9.40;81.90
46309;DHT22;32037;50.820;6.494;2022-11-20T10:39:21;9.40;82.00
46309;DHT22;32037;50.820;6.494;2022-11-20T10:41:52;9.40;81.90
46309;DHT22;32037;50.820;6.494;2022-11-20T10:44:26;9.40;82.00
46309;DHT22;32037;50.820;6.494;2022-11-20T10:47:14;9.40;82.00
46309;DHT22;32037;50.820;6.494;2022-11-20T10:49:45;9.30;81.90
46309;DHT22;32037;50.820;6.494;2022-11-20T10:52:20;9.40;82.10
46309;DHT22;32037;50.820;6.494;2022-11-20T10:54:59;9.30;82.00
46309;DHT22;32037;50.820;6.494;2022-11-20T10:57:46;9.30;82.10
46309;DHT22;32037;50.820;6.494;2022-11-20T11:00:21;9.30;82.00
46309;DHT22;32037;50.820;6.494;2022-11-20T11:02:51;9.30;82.10
46309;DHT22;32037;50.820;6.494;2022-11-20T11:05:34;9.30;82.20
46309;DHT22;32037;50.820;6.494;2022-11-20T11:08:10;9.30;82.20
46309;DHT22;32037;50.820;6.494;2022-11-20T11:10:43;9.30;82.10
46309;DHT22;32037;50.820;6.494;2022-11-20T11:13:20;9.30;82.20
46309;DHT22;32037;50.820;6.494;2022-11-20T11:15:51;9.30;82.30
46309;DHT22;32037;50.820;6.494;2022-11-20T11:18:24;9.30;82.20
46309;DHT22;32037;50.820;6.494;2022-11-20T11:20:57;9.30;82.20
46309;DHT22;32037;50.820;6.494;2022-11-20T11:23:34;9.30;82.30
46309;DHT22;32037;50.820;6.494;2022-11-20T11:26:05;9.30;82.20
46309;DHT22;32037;50.820;6.494;2022-11-20T11:28:34;9.30;82.30
46309;DHT22;32037;50.820;6.494;2022-11-20T11:31:04;9.30;82.20
46309;DHT22;32037;50.820;6.494;2022-11-20T11:33:33;9.30;82.30
46309;DHT22;32037;50.820;6.494;2022-11-20T11:36:03;9.30;82.20
46309;DHT22;32037;50.820;6.494;2022-11-20T11:38:35;9.30;82.40
46309;DHT22;32037;50.820;6.494;2022-11-20T11:41:12;9.30;82.30
46309;DHT22;32037;50.820;6.494;2022-11-20T11:43:52;9.30;82.40
46309;DHT22;32037;50.820;6.494;2022-11-20T11:46:49;9.30;82.40
46309;DHT22;32037;50.820;6.494;2022-11-20T11:49:19;9.30;82.30
46309;DHT22;32037;50.820;6.494;2022-11-20T11:52:00;9.30;82.30
46309;DHT22;32037;50.820;6.494;2022-11-20T11:54:34;9.30;82.50
46309;DHT22;32037;50.820;6.494;2022-11-20T11:57:12;9.30;82.30
46309;DHT22;32037;50.820;6.494;2022-11-20T11:59:51;9.30;82.30
46309;DHT22;32037;50.820;6.494;2022-11-20T12:02:31;9.30;82.30
46309;DHT22;32037;50.820;6.494;2022-11-20T12:05:09;9.30;82.40
46309;DHT22;32037;50.820;6.494;2022-11-20T12:07:42;9.20;82.40
46309;DHT22;32037;50.820;6.494;2022-11-20T12:10:21;9.30;82.50
46309;DHT22;32037;50.820;6.494;2022-11-20T12:12:55;9.30;82.60
46309;DHT22;32037;50.820;6.494;2022-11-20T12:15:30;9.30;82.60
46309;DHT22;32037;50.820;6.494;2022-11-20T12:18:01;9.30;82.70
46309;DHT22;32037;50.820;6.494;2022-11-20T12:20:38;9.30;82.70
46309;DHT22;32037;50.820;6.494;2022-11-20T12:23:16;9.20;82.60
46309;DHT22;32037;50.820;6.494;2022-11-20T12:25:48;9.30;82.80
46309;DHT22;32037;50.820;6.494;2022-11-20T12:28:41;9.30;82.70
46309;DHT22;32037;50.820;6.494;2022-11-20T12:31:34;9.30;82.60
46309;DHT22;32037;50.820;6.494;2022-11-20T12:34:21;9.30;82.60
46309;DHT22;32037;50.820;6.494;2022-11-20T12:36:56;9.30;82.70
46309;DHT22;32037;50.820;6.494;2022-11-20T12:39:34;9.30;82.70
46309;DHT22;32037;50.820;6.494;2022-11-20T12:42:23;9.30;82.80
46309;DHT22;32037;50.820;6.494;2022-11-20T12:45:51;9.30;82.90
46309;DHT22;32037;50.820;6.494;2022-11-20T12:48:51;9.20;83.10
46309;DHT22;32037;50.820;6.494;2022-11-20T12:57:38;9.20;83.10
46309;DHT22;32037;50.820;6.494;2022-11-20T13:00:25;9.20;83.10
46309;DHT22;32037;50.820;6.494;2022-11-20T13:03:13;9.20;83.30
46309;DHT22;32037;50.820;6.494;2022-11-20T13:05:52;9.20;83.30
46309;DHT22;32037;50.820;6.494;2022-11-20T13:08:29;9.20;83.70
46309;DHT22;32037;50.820;6.494;2022-11-20T13:11:03;9.20;83.60
46309;DHT22;32037;50.820;6.494;2022-11-20T13:13:43;9.20;83.70
46309;DHT22;32037;50.820;6.494;2022-11-20T13:16:19;9.20;83.60
46309;DHT22;32037;50.820;6.494;2022-11-20T13:19:02;9.20;83.70
46309;DHT22;32037;50.820;6.494;2022-11-20T13:21:44;9.20;83.70
46309;DHT22;32037;50.820;6.494;2022-11-20T13:24:25;9.20;83.60
46309;DHT22;32037;50.820;6.494;2022-11-20T13:27:49;9.20;83.60
46309;DHT22;32037;50.820;6.494;2022-11-20T13:30:34;9.20;83.70
46309;DHT22;32037;50.820;6.494;2022-11-20T13:33:29;9.20;83.70
46309;DHT22;32037;50.820;6.494;2022-11-20T13:36:28;9.20;83.60
46309;DHT22;32037;50.820;6.494;2022-11-20T13:39:08;9.20;83.60
46309;DHT22;32037;50.820;6.494;2022-11-20T13:41:54;9.20;83.70
46309;DHT22;32037;50.820;6.494;2022-11-20T13:44:37;9.20;83.60
46309;DHT22;32037;50.820;6.494;2022-11-20T13:47:25;9.20;83.60
46309;DHT22;32037;50.820;6.494;2022-11-20T13:50:09;9.20;83.70
46309;DHT22;32037;50.820;6.494;2022-11-20T13:53:26;9.20;83.70
46309;DHT22;32037;50.820;6.494;2022-11-20T13:56:03;9.20;83.70
46309;DHT22;32037;50.820;6.494;2022-11-20T13:58:56;9.20;83.70
46309;DHT22;32037;50.820;6.494;2022-11-20T14:01:49;9.20;83.60
46309;DHT22;32037;50.820;6.494;2022-11-20T14:04:27;9.20;83.70
46309;DHT22;32037;50.820;6.494;2022-11-20T14:07:07;9.20;83.70
46309;DHT22;32037;50.820;6.494;2022-11-20T14:09:52;9.20;83.70
46309;DHT22;32037;50.820;6.494;2022-11-20T14:12:27;9.20;83.60
46309;DHT22;32037;50.820;6.494;2022-11-20T14:14:58;9.20;83.70
46309;DHT22;32037;50.820;6.494;2022-11-20T14:17:31;9.20;83.60
46309;DHT22;32037;50.820;6.494;2022-11-20T14:20:03;9.20;83.60
46309;DHT22;32037;50.820;6.494;2022-11-20T14:22:34;9.20;83.70
46309;DHT22;32037;50.820;6.494;2022-11-20T14:25:19;9.20;83.70
46309;DHT22;32037;50.820;6.494;2022-11-20T14:27:57;9.20;83.60
46309;DHT22;32037;50.820;6.494;2022-11-20T14:30:43;9.20;83.70
46309;DHT22;32037;50.820;6.494;2022-11-20T14:33:14;9.20;83.70
46309;DHT22;32037;50.820;6.494;2022-11-20T14:35:48;9.20;83.70
46309;DHT22;32037;50.820;6.494;2022-11-20T14:38:23;9.20;83.60
46309;DHT22;32037;50.820;6.494;2022-11-20T14:40:53;9.20;83.70
46309;DHT22;32037;50.820;6.494;2022-11-20T14:43:25;9.20;84.20
46309;DHT22;32037;50.820;6.494;2022-11-20T14:46:01;9.20;83.70
46309;DHT22;32037;50.820;6.494;2022-11-20T14:48:37;9.20;83.70
46309;DHT22;32037;50.820;6.494;2022-11-20T14:51:09;9.20;83.60
46309;DHT22;32037;50.820;6.494;2022-11-20T14:53:38;9.20;83.70
46309;DHT22;32037;50.820;6.494;2022-11-20T14:56:08;9.20;83.70
46309;DHT22;32037;50.820;6.494;2022-11-20T14:58:38;9.20;83.70
46309;DHT22;32037;50.820;6.494;2022-11-20T15:01:12;9.20;83.70
46309;DHT22;32037;50.820;6.494;2022-11-20T15:03:45;9.20;83.60
46309;DHT22;32037;50.820;6.494;2022-11-20T15:06:25;9.20;83.70
46309;DHT22;32037;50.820;6.494;2022-11-20T15:08:56;9.20;83.70
46309;DHT22;32037;50.820;6.494;2022-11-20T15:11:31;9.20;83.70
46309;DHT22;32037;50.820;6.494;2022-11-20T15:14:04;9.20;83.60
46309;DHT22;32037;50.820;6.494;2022-11-20T15:16:37;9.20;83.60
46309;DHT22;32037;50.820;6.494;2022-11-20T15:19:17;9.20;83.70
46309;DHT22;32037;50.820;6.494;2022-11-20T15:21:47;9.20;83.70
46309;DHT22;32037;50.820;6.494;2022-11-20T15:24:16;9.20;83.70
46309;DHT22;32037;50.820;6.494;2022-11-20T15:26:46;9.20;83.60
46309;DHT22;32037;50.820;6.494;2022-11-20T15:29:16;9.20;83.70
46309;DHT22;32037;50.820;6.494;2022-11-20T15:31:47;9.20;83.60
46309;DHT22;32037;50.820;6.494;2022-11-20T15:34:18;9.20;83.70
46309;DHT22;32037;50.820;6.494;2022-11-20T15:36:48;9.20;83.70
46309;DHT22;32037;50.820;6.494;2022-11-20T15:39:17;9.20;83.70
46309;DHT22;32037;50.820;6.494;2022-11-20T15:41:45;9.20;83.70
46309;DHT22;32037;50.820;6.494;2022-11-20T15:44:15;9.20;83.70
46309;DHT22;32037;50.820;6.494;2022-11-20T15:46:44;9.20;83.70
46309;DHT22;32037;50.820;6.494;2022-11-20T15:49:16;9.20;83.70
46309;DHT22;32037;50.820;6.494;2022-11-20T15:51:48;9.20;83.60
46309;DHT22;32037;50.820;6.494;2022-11-20T15:54:18;9.20;83.70
46309;DHT22;32037;50.820;6.494;2022-11-20T15:56:49;9.20;83.70
46309;DHT22;32037;50.820;6.494;2022-11-20T15:59:20;9.20;83.60
46309;DHT22;32037;50.820;6.494;2022-11-20T16:01:49;9.20;84.20
46309;DHT22;32037;50.820;6.494;2022-11-20T16:04:20;9.20;83.70
46309;DHT22;32037;50.820;6.494;2022-11-20T16:06:49;9.20;83.70
46309;DHT22;32037;50.820;6.494;2022-11-20T16:09:18;9.20;84.60
46309;DHT22;32037;50.820;6.494;2022-11-20T16:11:47;9.20;84.40
46309;DHT22;32037;50.820;6.494;2022-11-20T16:14:15;9.20;84.20
46309;DHT22;32037;50.820;6.494;2022-11-20T16:17:02;9.20;84.20
46309;DHT22;32037;50.820;6.494;2022-11-20T16:19:32;9.20;84.20
46309;DHT22;32037;50.820;6.494;2022-11-20T16:22:01;9.20;84.40
46309;DHT22;32037;50.820;6.494;2022-11-20T16:24:29;9.20;84.30
46309;DHT22;32037;50.820;6.494;2022-11-20T16:26:58;9.20;84.60
46309;DHT22;32037;50.820;6.494;2022-11-20T16:29:27;9.20;84.20
46309;DHT22;32037;50.820;6.494;2022-11-20T16:31:57;9.20;84.70
46309;DHT22;32037;50.820;6.494;2022-11-20T16:34:26;9.10;84.70
46309;DHT22;32037;50.820;6.494;2022-11-20T16:36:56;9.20;84.80
46309;DHT22;32037;50.820;6.494;2022-11-20T16:39:25;9.20;84.70
46309;DHT22;32037;50.820;6.494;2022-11-20T16:41:54;9.20;85.10
46309;DHT22;32037;50.820;6.494;2022-11-20T16:44:22;9.10;84.90
46309;DHT22;32037;50.820;6.494;2022-11-20T16:46:51;9.20;85.00
46309;DHT22;32037;50.820;6.494;2022-11-20T16:49:20;9.10;85.40
46309;DHT22;32037;50.820;6.494;2022-11-20T16:51:49;9.10;85.40
46309;DHT22;32037;50.820;6.494;2022-11-20T16:54:19;9.10;85.30
46309;DHT22;32037;50.820;6.494;2022-11-20T16:56:47;9.10;85.50
46309;DHT22;32037;50.820;6.494;2022-11-20T16:59:18;9.10;85.50
46309;DHT22;32037;50.820;6.494;2022-11-20T17:01:47;9.10;85.30
46309;DHT22;32037;50.820;6.494;2022-11-20T17:04:18;9.10;85.80
46309;DHT22;32037;50.820;6.494;2022-11-20T17:06:48;9.10;85.70
46309;DHT22;32037;50.820;6.494;2022-11-20T17:09:18;9.10;85.70
46309;DHT22;32037;50.820;6.494;2022-11-20T17:11:47;9.10;85.60
46309;DHT22;32037;50.820;6.494;2022-11-20T17:14:16;9.10;85.50
46309;DHT22;32037;50.820;6.494;2022-11-20T17:16:46;9.10;85.40
46309;DHT22;32037;50.820;6.494;2022-11-20T17:19:15;9.10;85.50
46309;DHT22;32037;50.820;6.494;2022-11-20T17:21:46;9.10;85.70
46309;DHT22;32037;50.820;6.494;2022-11-20T17:24:18;9.10;85.60
46309;DHT22;32037;50.820;6.494;2022-11-20T17:26:48;9.10;85.40